EKCH/CPH METAR and TAF weather

Enter ICAO airport designator
Station Type Date Time Source
EKCH METAR 2020/04/04 04:20 UTC NOAA

EKCH 040420Z AUTO 26007KT 9999 NCD 01/M00 Q1019 NOSIG


Station Type Date Time Source
EKCH Decoded METAR 2020/04/04 04:20 UTC NOAA

Koebenhavn / Kastrup, Denmark (EKCH) 55-37N 012-39E 5M
Apr 04, 2020 - 12:20 AM EDT / 2020.04.04 0420 UTC
Wind: from the W (260 degrees) at 8 MPH (7 KT):0
Visibility: greater than 7 mile(s):0
Temperature: 33 F (1 C)
Windchill: 26 F (-3 C):1
Dew Point: 32 F (0 C)
Relative Humidity: 93%
Pressure (altimeter): 30.09 in. Hg (1019 hPa)
ob: EKCH 040420Z AUTO 26007KT 9999 NCD 01/M00 Q1019 NOSIG
cycle: 4

Station Type Date Time Source
EKCH TAF 2020/04/03 18:06 UTC NOAA

TAF TAF EKCH 031701Z 0318/0418 27010KT 9999 SCT025
TEMPO 0318/0401 FEW020TCU
TEMPO 0413/0418 4000 SHRA SCT020CB

Example: see airport list